Time;durP1;ratioP1;P1;durP2;ratioP2;P2;SDS_P1;SDS_P2;PMS_P1;PMS_P2;Temp;Humidity;BMP_temperature;BMP_pressure;BME280_temperature;BME280_humidity;BME280_pressure;Samples;Min_cycle;Max_cycle;Signal;HPM_P1;HPM_P2
2022/12/27 06:56:06;;;;;;;5.85;1.90;;;;;;;;;;10624459;27;20403;-80
2022/12/27 07:01:11;;;;;;;2.83;1.20;;;;;;;;;;10620976;28;20034;-80
2022/12/27 07:06:12;;;;;;;2.38;1.05;;;;;;;;;;10623906;27;20093;-80
2022/12/27 07:11:14;;;;;;;2.75;1.50;;;;;;;;;;10621351;27;20027;-80
2022/12/27 07:16:16;;;;;;;2.65;1.30;;;;;;;;;;10630080;27;20039;-81
2022/12/27 07:21:19;;;;;;;4.75;1.65;;;;;;;;;;10631585;27;20055;-79
2022/12/27 07:26:21;;;;;;;6.40;3.33;;;;;;;;;;10624843;27;20461;-79
2022/12/27 07:31:25;;;;;;;3.65;1.90;;;;;;;;;;10619857;27;20080;-80
2022/12/27 07:36:27;;;;;;;3.83;1.63;;;;;;;;;;10625522;27;20110;-80
2022/12/27 07:41:28;;;;;;;4.93;2.25;;;;;;;;;;10626024;27;20088;-81
2022/12/27 07:46:29;;;;;;;;;;;;;;;;;;10625975;27;20028;-80
2022/12/27 07:51:30;;;;;;;2.78;1.38;;;;;;;;;;10625420;28;19916;-80
2022/12/27 07:56:31;;;;;;;3.22;1.85;;;;;;;;;;10625283;27;20024;-80
2022/12/27 08:02:17;;;;;;;2.85;1.52;;;;;;;;;;10625381;27;20104;-80
2022/12/27 08:07:18;;;;;;;4.15;1.70;;;;;;;;;;10599898;27;20036;-81
2022/12/27 08:12:19;;;;;;;4.22;2.00;;;;;;;;;;10598456;28;20015;-81
2022/12/27 08:17:29;;;;;;;5.88;2.50;;;;;;;;;;10599134;28;20038;-81
2022/12/27 08:22:30;;;;;;;9.33;3.10;;;;;;;;;;10593221;28;20378;-78
2022/12/27 08:27:31;;;;;;;11.00;3.85;;;;;;;;;;10592836;28;20281;-79
2022/12/27 08:32:32;;;;;;;8.55;5.15;;;;;;;;;;10588044;28;20057;-77
2022/12/27 08:37:33;;;;;;;;;;;;;;;;;;10593402;28;20055;-80
2022/12/27 08:42:34;;;;;;;12.32;6.93;;;;;;;;;;10586580;28;20407;-78
2022/12/27 08:47:35;;;;;;;10.40;4.78;;;;;;;;;;10585844;28;20027;-77
2022/12/27 08:52:42;;;;;;;9.75;5.13;;;;;;;;;;10585996;28;20036;-78
2022/12/27 08:57:43;;;;;;;7.15;4.28;;;;;;;;;;10589285;28;20016;-77
2022/12/27 09:02:45;;;;;;;8.50;4.03;;;;;;;;;;10585446;28;20397;-77
2022/12/27 09:07:46;;;;;;;8.45;3.58;;;;;;;;;;10590259;28;20385;-78
2022/12/27 09:12:56;;;;;;;;;;;;;;;;;;10591422;28;20030;-78
2022/12/27 09:17:57;;;;;;;7.35;2.80;;;;;;;;;;10588506;28;19987;-78
2022/12/27 09:22:59;;;;;;;6.85;2.72;;;;;;;;;;10591122;28;20461;-78
2022/12/27 09:28:00;;;;;;;;;;;;;;;;;;10591829;28;20031;-79
2022/12/27 09:33:01;;;;;;;10.02;5.47;;;;;;;;;;10589122;28;19932;-78
2022/12/27 09:38:02;;;;;;;9.38;3.78;;;;;;;;;;10588073;28;20524;-77
2022/12/27 09:43:08;;;;;;;4.30;2.55;;;;;;;;;;10597977;28;20110;-77
2022/12/27 09:48:35;;;;;;;8.63;2.88;;;;;;;;;;10602317;28;20039;-77
2022/12/27 09:53:36;;;;;;;5.68;2.60;;;;;;;;;;10609114;27;20100;-77
2022/12/27 09:58:38;;;;;;;6.65;2.45;;;;;;;;;;10601413;28;20077;-78
2022/12/27 10:03:39;;;;;;;8.90;3.38;;;;;;;;;;10619555;28;20039;-78
2022/12/27 10:09:00;;;;;;;7.80;3.33;;;;;;;;;;10592096;27;20041;-76
2022/12/27 10:14:01;;;;;;;;;;;;;;;;;;10590611;28;20544;-78
2022/12/27 10:19:05;;;;;;;6.20;2.88;;;;;;;;;;10603395;28;19967;-78
2022/12/27 10:24:18;;;;;;;5.05;2.65;;;;;;;;;;10602685;28;20147;-79
2022/12/27 10:29:21;;;;;;;4.70;2.45;;;;;;;;;;10603318;28;20028;-80
2022/12/27 10:34:25;;;;;;;3.70;1.95;;;;;;;;;;10619196;28;20030;-79
2022/12/27 10:39:28;;;;;;;5.03;2.47;;;;;;;;;;10601564;28;20043;-77
2022/12/27 10:44:29;;;;;;;4.95;2.45;;;;;;;;;;10604588;28;20084;-76
2022/12/27 10:49:31;;;;;;;6.55;3.05;;;;;;;;;;10597038;28;20035;-78
2022/12/27 10:54:32;;;;;;;5.95;2.60;;;;;;;;;;10588622;28;20043;-78
2022/12/27 10:59:34;;;;;;;;;;;;;;;;;;10594537;28;20173;-78
2022/12/27 11:04:57;;;;;;;6.57;2.63;;;;;;;;;;10600269;28;19911;-79
2022/12/27 11:10:14;;;;;;;6.70;2.30;;;;;;;;;;10615998;28;20024;-78
2022/12/27 11:15:18;;;;;;;5.25;2.50;;;;;;;;;;10597238;28;20091;-80
2022/12/27 11:20:49;;;;;;;5.93;2.03;;;;;;;;;;10596828;28;20040;-83
2022/12/27 11:25:56;;;;;;;5.93;1.95;;;;;;;;;;10595199;28;20054;-80
2022/12/27 11:30:59;;;;;;;4.20;2.28;;;;;;;;;;10592472;28;20103;-79
2022/12/27 11:36:00;;;;;;;5.72;2.15;;;;;;;;;;10596237;28;20110;-78
2022/12/27 11:41:08;;;;;;;8.35;2.10;;;;;;;;;;10601204;28;20028;-78
2022/12/27 11:46:18;;;;;;;5.07;2.20;;;;;;;;;;10604215;28;20058;-80
2022/12/27 11:51:22;;;;;;;6.27;2.07;;;;;;;;;;10603757;28;20099;-79
2022/12/27 11:56:28;;;;;;;4.45;1.95;;;;;;;;;;10604607;28;20026;-79
2022/12/27 12:01:32;;;;;;;5.35;2.13;;;;;;;;;;10608212;28;20024;-79
2022/12/27 12:06:52;;;;;;;8.93;2.30;;;;;;;;;;10605526;27;20073;-85
2022/12/27 12:11:55;;;;;;;5.15;2.28;;;;;;;;;;10603873;28;20032;-78
2022/12/27 12:17:20;;;;;;;5.35;1.85;;;;;;;;;;10608004;28;20110;-78
2022/12/27 12:22:34;;;;;;;7.18;2.55;;;;;;;;;;10621632;28;20031;-78
2022/12/27 12:27:41;;;;;;;7.50;2.20;;;;;;;;;;10605469;28;20020;-79
2022/12/27 12:32:42;;;;;;;5.88;3.05;;;;;;;;;;10601199;28;20027;-80
2022/12/27 12:37:43;;;;;;;;;;;;;;;;;;10601752;28;20028;-81
2022/12/27 12:43:04;;;;;;;5.35;2.22;;;;;;;;;;10601960;28;19908;-79
2022/12/27 12:48:11;;;;;;;6.60;2.80;;;;;;;;;;10602547;28;20122;-79
2022/12/27 12:53:19;;;;;;;8.48;2.10;;;;;;;;;;10602633;28;20043;-78
2022/12/27 12:58:28;;;;;;;5.78;2.30;;;;;;;;;;10583553;28;20032;-78
2022/12/27 13:03:35;;;;;;;3.33;1.92;;;;;;;;;;10602890;28;20122;-80
2022/12/27 13:08:44;;;;;;;5.43;2.03;;;;;;;;;;10601446;28;20024;-79
2022/12/27 13:14:08;;;;;;;5.03;2.00;;;;;;;;;;10601431;28;20042;-79
2022/12/27 13:19:12;;;;;;;7.28;2.88;;;;;;;;;;10602159;28;20110;-79
2022/12/27 13:24:13;;;;;;;10.60;2.40;;;;;;;;;;10606441;28;20027;-78
2022/12/27 13:29:37;;;;;;;6.03;2.85;;;;;;;;;;10603357;28;20024;-78
2022/12/27 13:34:41;;;;;;;5.50;1.80;;;;;;;;;;10599336;28;20036;-78
2022/12/27 13:39:49;;;;;;;8.57;3.28;;;;;;;;;;10603063;28;20016;-79
2022/12/27 13:45:00;;;;;;;5.30;2.05;;;;;;;;;;10608779;28;20057;-79
2022/12/27 13:50:01;;;;;;;4.03;1.77;;;;;;;;;;10592976;28;20031;-77
2022/12/27 13:55:02;;;;;;;;;;;;;;;;;;10591139;28;20077;-78
2022/12/27 14:00:09;;;;;;;4.30;1.90;;;;;;;;;;10594087;28;19910;-79
2022/12/27 14:05:29;;;;;;;4.38;2.05;;;;;;;;;;10595050;28;20031;-79
2022/12/27 14:10:43;;;;;;;3.63;1.75;;;;;;;;;;10594121;28;20177;-79
2022/12/27 14:16:10;;;;;;;5.93;1.98;;;;;;;;;;10592195;28;20052;-78
2022/12/27 14:21:17;;;;;;;4.70;1.65;;;;;;;;;;10593386;28;20041;-79
2022/12/27 14:26:27;;;;;;;3.33;1.98;;;;;;;;;;10594346;28;20114;-79
2022/12/27 14:31:45;;;;;;;5.57;2.43;;;;;;;;;;10606474;28;20122;-79
2022/12/27 14:37:18;;;;;;;7.15;2.42;;;;;;;;;;10607397;28;20059;-79
2022/12/27 14:42:37;;;;;;;3.95;1.85;;;;;;;;;;10590334;28;20031;-79
2022/12/27 14:47:38;;;;;;;5.20;2.22;;;;;;;;;;10600154;28;20020;-79
2022/12/27 14:52:39;;;;;;;;;;;;;;;;;;10598729;28;20069;-78
2022/12/27 14:57:59;;;;;;;6.70;1.75;;;;;;;;;;10595470;28;19904;-78
2022/12/27 15:03:20;;;;;;;7.45;2.60;;;;;;;;;;10604488;28;20135;-79
2022/12/27 15:08:30;;;;;;;4.15;1.88;;;;;;;;;;10612278;28;20057;-79
2022/12/27 15:13:48;;;;;;;5.63;2.00;;;;;;;;;;10600458;27;20027;-85
2022/12/27 15:18:49;;;;;;;4.25;2.65;;;;;;;;;;10603025;28;20028;-80
2022/12/27 15:23:51;;;;;;;;;;;;;;;;;;10605895;28;20027;-80
2022/12/27 15:29:15;;;;;;;21.90;9.27;;;;;;;;;;10606732;28;19904;-79
2022/12/27 15:34:16;;;;;;;5.50;2.58;;;;;;;;;;10609098;28;20492;-78
2022/12/27 15:39:17;;;;;;;;;;;;;;;;;;10608345;28;20084;-78
2022/12/27 15:44:36;;;;;;;6.85;2.28;;;;;;;;;;10610256;28;19911;-78
2022/12/27 15:49:56;;;;;;;5.07;1.92;;;;;;;;;;10607941;28;20123;-78
2022/12/27 15:55:16;;;;;;;4.85;2.25;;;;;;;;;;10611368;28;20060;-79
2022/12/27 16:00:49;;;;;;;4.10;1.90;;;;;;;;;;10597160;22;20346;-89
2022/12/27 16:06:18;;;;;;;5.28;3.00;;;;;;;;;;10417029;28;20064;-88
2022/12/27 16:12:04;;;;;;;6.47;2.78;;;;;;;;;;10309650;28;20393;-89
2022/12/27 17:25:54;;;;;;;5.97;2.40;;;;;;;;;;10461723;28;20077;-89
2022/12/27 17:30:58;;;;;;;4.75;2.00;;;;;;;;;;10453939;28;20044;-86
2022/12/27 17:36:02;;;;;;;4.95;2.20;;;;;;;;;;10445866;28;20039;-90
2022/12/27 17:44:36;;;;;;;4.47;2.20;;;;;;;;;;10442897;28;20130;-89
2022/12/27 17:47:07;;;;;;;4.85;1.77;;;;;;;;;;10460122;28;20518;-89
2022/12/27 17:57:54;;;;;;;4.38;1.58;;;;;;;;;;10460406;28;20032;-88
2022/12/27 18:02:56;;;;;;;3.38;1.50;;;;;;;;;;10446915;28;20037;-89
2022/12/27 18:08:24;;;;;;;4.28;1.75;;;;;;;;;;10442941;28;20398;-89
2022/12/27 18:13:26;;;;;;;4.00;1.70;;;;;;;;;;10443895;28;20069;-89
2022/12/27 18:18:32;;;;;;;5.05;1.95;;;;;;;;;;10467142;28;20033;-88
2022/12/27 18:23:40;;;;;;;5.18;1.77;;;;;;;;;;10444083;28;20055;-89
2022/12/27 18:28:42;;;;;;;5.50;2.00;;;;;;;;;;10443536;28;20087;-89
2022/12/27 18:33:43;;;;;;;3.03;1.60;;;;;;;;;;10441063;28;20029;-90
2022/12/27 18:38:46;;;;;;;4.85;1.65;;;;;;;;;;10441828;28;20029;-89
2022/12/27 18:43:48;;;;;;;4.03;1.70;;;;;;;;;;10442387;28;20025;-89
2022/12/27 18:48:49;;;;;;;3.67;1.40;;;;;;;;;;10449480;28;20025;-89
2022/12/27 18:53:50;;;;;;;;;;;;;;;;;;10472474;28;20040;-89
2022/12/27 18:59:06;;;;;;;5.30;2.10;;;;;;;;;;10461603;28;19905;-90
2022/12/27 19:04:16;;;;;;;3.90;1.90;;;;;;;;;;10443992;28;20395;-89
2022/12/27 19:09:19;;;;;;;5.40;2.13;;;;;;;;;;10440237;28;20029;-90
2022/12/27 19:14:21;;;;;;;3.83;1.52;;;;;;;;;;10439379;28;20478;-88
2022/12/27 19:19:30;;;;;;;5.07;2.00;;;;;;;;;;10439282;28;20079;-89
2022/12/27 19:24:32;;;;;;;4.38;1.70;;;;;;;;;;10440715;28;20136;-89
2022/12/27 19:29:33;;;;;;;2.60;1.40;;;;;;;;;;10440500;28;20460;-89
2022/12/27 19:34:45;;;;;;;5.47;2.00;;;;;;;;;;10444096;28;20033;-89
2022/12/27 19:39:47;;;;;;;2.53;1.50;;;;;;;;;;10443210;28;20519;-87
2022/12/27 19:44:48;;;;;;;4.72;1.80;;;;;;;;;;10443236;28;20032;-88
2022/12/27 19:49:49;;;;;;;5.03;2.13;;;;;;;;;;10439382;28;20025;-87
2022/12/27 19:54:52;;;;;;;2.83;1.42;;;;;;;;;;10440224;28;20124;-88
2022/12/27 19:59:53;;;;;;;4.15;1.55;;;;;;;;;;10442740;28;20043;-89
2022/12/27 20:04:54;;;;;;;4.38;1.70;;;;;;;;;;10446865;28;20457;-88
2022/12/27 20:09:55;;;;;;;3.53;1.70;;;;;;;;;;10450334;28;20116;-88
2022/12/27 20:14:56;;;;;;;6.47;1.73;;;;;;;;;;10471613;28;20466;-88
2022/12/27 20:19:57;;;;;;;4.57;1.70;;;;;;;;;;10448273;28;20025;-87
